createdAt,value
2023-06-17T00:01:56.030Z,0.0
2023-06-17T00:12:26.465Z,0.0
2023-06-17T00:18:46.880Z,0.0
2023-06-17T00:29:23.563Z,0.0
2023-06-17T00:41:13.158Z,0.0
2023-06-17T00:47:34.656Z,0.0
2023-06-17T00:53:55.330Z,0.0
2023-06-17T01:00:15.955Z,0.0
2023-06-17T01:06:36.594Z,0.0
2023-06-17T01:12:56.245Z,0.0
2023-06-17T01:19:16.037Z,0.0
2023-06-17T01:25:36.497Z,0.0
2023-06-17T01:41:10.407Z,0.0
2023-06-17T01:47:30.920Z,0.0
2023-06-17T01:55:45.201Z,0.0
2023-06-17T02:07:45.434Z,0.0
2023-06-17T02:14:05.386Z,0.0
2023-06-17T02:20:25.182Z,0.0
2023-06-17T02:32:20.011Z,0.0
2023-06-17T02:45:10.733Z,0.0
2023-06-17T02:51:30.886Z,0.0
2023-06-17T02:57:51.527Z,0.0
2023-06-17T03:06:16.613Z,0.0
2023-06-17T03:12:36.408Z,0.0
2023-06-17T03:18:56.840Z,0.0
2023-06-17T03:30:31.302Z,0.0
2023-06-17T03:36:51.467Z,0.0
2023-06-17T03:43:15.518Z,0.26591973244147166
2023-06-17T03:49:38.488Z,1.5944147157190636
2023-06-17T03:56:00.515Z,1.7470234113712382
2023-06-17T04:02:23.179Z,2.801973244147156
2023-06-17T04:08:46.316Z,4.30839464882943
2023-06-17T04:15:08.700Z,5.314147157190638
2023-06-17T04:22:02.527Z,6.392006688963214
2023-06-17T04:32:52.825Z,10.235484949832776
2023-06-17T04:41:36.451Z,13.37648829431437
2023-06-17T04:47:59.110Z,11.049765886287624
2023-06-17T04:54:21.088Z,10.39254180602007
2023-06-17T05:04:11.728Z,14.704180602006687
2023-06-17T05:10:34.878Z,19.286655518394642
2023-06-17T05:16:57.955Z,20.350100334448165
2023-06-17T05:23:21.369Z,24.12698996655517
2023-06-17T05:34:52.771Z,24.14367892976588
2023-06-17T05:41:18.692Z,26.99792642140469
2023-06-17T05:47:41.523Z,29.133745819397998
2023-06-17T05:58:25.875Z,36.26240802675587
2023-06-17T06:10:29.804Z,37.30548494983277
2023-06-17T06:16:52.681Z,40.4703678929766
2023-06-17T06:23:15.422Z,42.8063879598662
2023-06-17T06:34:56.878Z,51.31933110367893
2023-06-17T06:42:36.669Z,45.06454849498327
2023-06-17T06:48:58.924Z,48.670769230769224
2023-06-17T06:55:22.538Z,53.66889632107025
2023-06-17T07:02:07.839Z,59.81525083612037
2023-06-17T07:15:25.319Z,84.66361204013376
2023-06-17T07:21:47.517Z,83.31270903010031
2023-06-17T07:28:10.261Z,74.7048160535117
2023-06-17T07:34:32.837Z,80.52739130434784
2023-06-17T07:40:54.799Z,78.47157190635454
2023-06-17T07:48:41.064Z,76.89602006688965
2023-06-17T08:01:17.517Z,82.57806020066892
2023-06-17T08:07:39.712Z,96.0699331103679
2023-06-17T08:14:31.096Z,113.12127090300999
2023-06-17T08:22:33.420Z,124.01207357859532
2023-06-17T08:28:56.780Z,132.90755852842804
2023-06-17T08:35:20.551Z,134.2881939799332
2023-06-17T08:43:19.190Z,138.2407023411371
2023-06-17T08:49:43.870Z,158.01608695652172
2023-06-17T08:56:08.982Z,160.00478260869573
2023-06-17T09:02:33.157Z,151.11989966555177
2023-06-17T09:08:56.670Z,227.64595317725752
2023-06-17T09:15:20.697Z,205.7280602006689
2023-06-17T09:22:21.473Z,189.5644816053512
2023-06-17T09:29:29.716Z,261.17618729096995
2023-06-17T09:40:45.981Z,399.3463879598663
2023-06-17T09:54:50.421Z,380.6435117056861
2023-06-17T10:05:18.865Z,330.9044816053513
2023-06-17T10:15:03.649Z,375.1445150501672
2023-06-17T10:21:29.146Z,579.8501672240807
2023-06-17T10:27:52.988Z,563.7298327759197
2023-06-17T10:34:17.180Z,460.1713712374582
2023-06-17T10:40:40.954Z,453.38337792642113
2023-06-17T10:47:04.585Z,380.1004682274247
2023-06-17T10:53:29.177Z,357.80866220735817
2023-06-17T11:11:41.590Z,395.3900334448162
2023-06-17T11:18:06.282Z,393.6003344481605
2023-06-17T11:26:58.369Z,413.5766220735787
2023-06-17T11:36:54.000Z,470.8789966555188
2023-06-17T11:48:52.576Z,483.8327090301001
2023-06-17T11:55:16.011Z,517.9467558528431
2023-06-17T12:01:40.200Z,572.2127090301009
2023-06-17T12:08:02.781Z,572.5398996655525
2023-06-17T12:19:45.852Z,571.2376254180608
2023-06-17T12:31:10.333Z,558.2150501672236
2023-06-17T12:37:33.220Z,560.9839799331105
2023-06-17T12:43:55.915Z,560.8647491638795
2023-06-17T12:50:18.914Z,568.1850501672244
2023-06-17T12:56:55.605Z,559.8338795986624
2023-06-17T13:03:19.077Z,531.1174916387959
2023-06-17T13:09:42.519Z,511.34846153846195
2023-06-17T13:16:05.517Z,505.66117056856257
2023-06-17T13:22:28.258Z,475.12896321070207
2023-06-17T13:28:51.564Z,443.85321070234176
2023-06-17T13:50:37.680Z,374.0501672240805
2023-06-17T13:57:00.379Z,317.1563210702341
2023-06-17T14:03:23.833Z,228.21040133779266
2023-06-17T14:12:21.808Z,321.3386622073577
2023-06-17T14:18:45.008Z,318.0771237458194
2023-06-17T14:25:07.470Z,310.03742474916373
2023-06-17T14:31:30.571Z,309.34538461538494
2023-06-17T14:37:54.032Z,356.3030434782611
2023-06-17T14:48:26.031Z,291.8663545150503
2023-06-17T14:54:50.336Z,269.0775250836122
2023-06-17T15:04:53.368Z,325.4829431438126
2023-06-17T15:11:17.959Z,308.858963210702
2023-06-17T15:17:41.427Z,292.97127090300995
2023-06-17T15:24:36.288Z,294.1554180602006
2023-06-17T15:36:35.546Z,257.71745819397984
2023-06-17T15:42:59.668Z,248.55183946488305
2023-06-17T15:59:22.155Z,213.0638795986623
2023-06-17T16:05:45.231Z,57.685919732441434
2023-06-17T16:12:08.540Z,207.59036789297645
2023-06-17T16:20:29.960Z,192.84525083612033
2023-06-17T16:31:36.320Z,157.50872909699007
2023-06-17T16:38:00.671Z,112.25648829431437
2023-06-17T16:44:24.791Z,94.52488294314374
2023-06-17T16:50:49.767Z,80.60187290969903
2023-06-17T16:57:13.018Z,44.70297658862874
2023-06-17T17:03:36.769Z,42.321137123745814
2023-06-17T17:10:00.417Z,37.99903010033447
2023-06-17T17:16:23.660Z,35.462073578595316
2023-06-17T17:28:38.764Z,34.99598662207359
2023-06-17T17:35:01.861Z,32.79558528428096
2023-06-17T17:41:24.899Z,30.495217391304354
2023-06-17T17:59:28.313Z,26.04173913043478
2023-06-17T18:07:01.989Z,24.391939799331105
2023-06-17T18:13:24.435Z,23.05755852842809
2023-06-17T18:19:47.123Z,21.20839464882944
2023-06-17T18:26:09.477Z,19.59909698996656
2023-06-17T18:32:31.372Z,17.69976588628763
2023-06-17T18:38:54.343Z,15.5638127090301
2023-06-17T18:45:17.494Z,13.462742474916386
2023-06-17T18:51:41.219Z,11.452140468227427
2023-06-17T19:04:50.921Z,7.813913043478263
2023-06-17T19:18:38.190Z,4.739197324414716
2023-06-17T19:25:01.070Z,3.562240802675588
2023-06-17T19:31:24.781Z,2.4909698996655547
2023-06-17T19:42:38.301Z,0.5243143812709034
2023-06-17T19:48:59.055Z,0.0
2023-06-17T19:55:21.639Z,0.0
2023-06-17T20:08:30.077Z,0.0
2023-06-17T20:14:51.003Z,0.0
2023-06-17T20:27:43.748Z,0.0
2023-06-17T20:34:04.399Z,0.0
2023-06-17T20:44:11.553Z,0.0
2023-06-17T20:50:32.212Z,0.0
2023-06-17T20:56:52.901Z,0.0
2023-06-17T21:03:13.973Z,0.0
2023-06-17T21:09:34.908Z,0.0
2023-06-17T21:22:07.019Z,0.0
2023-06-17T21:28:32.392Z,0.0
2023-06-17T21:38:19.491Z,0.0
2023-06-17T21:50:51.296Z,0.0
2023-06-17T21:57:12.733Z,0.0
2023-06-17T22:07:23.643Z,0.0
2023-06-17T22:19:38.647Z,0.0
2023-06-17T22:33:28.719Z,0.0
2023-06-17T22:44:47.415Z,0.0
2023-06-17T22:51:08.116Z,0.0
2023-06-17T22:57:28.468Z,0.0
2023-06-17T23:03:49.300Z,0.0
2023-06-17T23:10:56.769Z,0.0
2023-06-17T23:17:17.525Z,0.0
2023-06-17T23:23:37.981Z,0.0
2023-06-17T23:42:29.146Z,0.0
2023-06-17T23:48:50.423Z,0.0
2023-06-17T23:55:11.931Z,0.0
